Terminal Aerodrome Forecast
Issued by NWS Sterling, VA

Current Version | Previous Version | Text Only | Print | Product List | Glossary Off
Versions: 1 2 3 4 5 6 7 8 9 10 11 12 13 14 15 16 17 18 19

111
FTUS41 KLWX 281150 AAA
TAFMRB
TAF AMD
KMRB 281150Z 2812/2912 00000KT 4SM -SHRA VCTS SCT025CB OVC060
      TEMPO 2812/2816 1SM BR
     FM281700 22004KT 4SM -SHRA VCTS BKN010CB OVC025
     FM281900 25004KT 6SM -SHRA SCT030 OVC035
     FM290000 33006KT P6SM SCT025 OVC040
     FM290600 34007KT P6SM BKN010 BKN025
     FM290900 34007KT P6SM SCT025 BKN035=

USA.gov is the U.S. government's official web portal to all federal, state and local government web resources and services.